Hattiesburg, MS

3:44 PM CDT on April 30, 2017 (GMT -0500)
USM School of Polymers | | Change Station

Elev 233 ft 31.33 °N, 89.34 °W | Updated 10 seconds ago

Rain
Rain
67.2 °F
Feels Like 67.2 °F
N
5.0
Wind Variable Wind from SE
Gusts 5.0 mph

Today
High -- | Low -- °F
--% Chance of Precip.
Yesterday
High -- | Low -- °F
Precip. -- in
Pressure 29.87 in
Visibility 9.0 miles
Clouds Mostly Cloudy 11000 ft
Dew Point 66 °F
Humidity 96%
Rainfall 2.90 in
Snow Depth Not available.
6:13 AM 7:36 PM
Waxing Crescent, 26% visible
SPECI KHBG 302033Z AUTO 15020G26KT 9SM TSRA BKN110 20/19 A2987 RMK AO2 PK WND 15026/2026 LTG DSNT ALQDS TSE16B27 P0004 T02000189
Pressure 29.87 in
Visibility 9.0 miles
Clouds Mostly Cloudy 11000 ft
Dew Point 66 °F
Humidity 96%
Rainfall 2.90 in
Snow Depth Not available.
6:13 AM 7:36 PM
Waxing Crescent, 26% visible
SPECI KHBG 302033Z AUTO 15020G26KT 9SM TSRA BKN110 20/19 A2987 RMK AO2 PK WND 15026/2026 LTG DSNT ALQDS TSE16B27 P0004 T02000189

Get Severe Weather Alerts

Thanks for signing up!

Be on the lookout for a verification email in your inbox.

You'll start receiving the daily forecast at 8 AM.

×

10-Day Weather Forecast

Almanac

Astronomy

Apr. 30, 2017 Rise Set
Actual Time
Civil Twilight
Nautical Twilight
Astronomical Twilight
Moon
Length of Visible Light
Length of Day
Tomorrow will be .
, % of the Moon is Illuminated

Today's Extremes

State Highs State Lows

Community

WunderPhotos

WunderBlog® & News

Nearby

Air Quality

  Air Quality AQ Index Pollutant
Not available.

Snow Depth

Station Depth Elevation

Earthquake Activity

City Distance Mag. Time & Date
Minimum magnitude displayed is 2.5.

Coastal Water Temperatures

Place Temperature

Stations

Nearby Weather Stations

Station Location Temp. Windchill Dew Point Humidity Wind Precip. Elev Updated Type
                   

Watches & Warnings

There are currently no watches in effect.